sensor_id;sensor_type;location;lat;lon;timestamp;P1;durP1;ratioP1;P2;durP2;ratioP2
58669;SDS011;44439;47.924;10.198;2023-04-15T00:00:19;3.90;;;2.33;;
58669;SDS011;44439;47.924;10.198;2023-04-15T00:03:05;4.30;;;1.65;;
58669;SDS011;44439;47.924;10.198;2023-04-15T00:05:51;5.50;;;2.33;;
58669;SDS011;44439;47.924;10.198;2023-04-15T00:08:36;5.32;;;2.05;;
58669;SDS011;44439;47.924;10.198;2023-04-15T00:11:26;4.35;;;1.73;;
58669;SDS011;44439;47.924;10.198;2023-04-15T00:14:12;4.97;;;1.75;;
58669;SDS011;44439;47.924;10.198;2023-04-15T00:16:57;2.00;;;1.23;;
58669;SDS011;44439;47.924;10.198;2023-04-15T00:19:43;3.38;;;1.30;;
58669;SDS011;44439;47.924;10.198;2023-04-15T00:22:30;6.88;;;1.63;;
58669;SDS011;44439;47.924;10.198;2023-04-15T00:25:16;2.53;;;1.42;;
58669;SDS011;44439;47.924;10.198;2023-04-15T00:28:02;2.35;;;1.20;;
58669;SDS011;44439;47.924;10.198;2023-04-15T00:30:48;4.40;;;1.50;;
58669;SDS011;44439;47.924;10.198;2023-04-15T00:33:34;4.45;;;1.40;;
58669;SDS011;44439;47.924;10.198;2023-04-15T00:36:21;3.75;;;1.20;;
58669;SDS011;44439;47.924;10.198;2023-04-15T00:39:07;4.18;;;1.40;;
58669;SDS011;44439;47.924;10.198;2023-04-15T00:41:53;2.60;;;1.30;;
58669;SDS011;44439;47.924;10.198;2023-04-15T00:44:40;3.78;;;1.63;;
58669;SDS011;44439;47.924;10.198;2023-04-15T00:47:25;4.00;;;1.70;;
58669;SDS011;44439;47.924;10.198;2023-04-15T00:50:12;1.80;;;1.30;;
58669;SDS011;44439;47.924;10.198;2023-04-15T00:52:57;3.72;;;1.50;;
58669;SDS011;44439;47.924;10.198;2023-04-15T00:55:43;2.55;;;1.30;;
58669;SDS011;44439;47.924;10.198;2023-04-15T00:58:29;3.60;;;1.42;;
58669;SDS011;44439;47.924;10.198;2023-04-15T01:01:15;2.67;;;1.45;;
58669;SDS011;44439;47.924;10.198;2023-04-15T01:04:00;2.53;;;1.40;;
58669;SDS011;44439;47.924;10.198;2023-04-15T01:06:47;3.22;;;1.30;;
58669;SDS011;44439;47.924;10.198;2023-04-15T01:09:32;3.35;;;1.48;;
58669;SDS011;44439;47.924;10.198;2023-04-15T01:12:18;3.50;;;1.58;;
58669;SDS011;44439;47.924;10.198;2023-04-15T01:15:04;5.60;;;1.40;;
58669;SDS011;44439;47.924;10.198;2023-04-15T01:17:51;3.30;;;1.65;;
58669;SDS011;44439;47.924;10.198;2023-04-15T01:20:36;4.07;;;1.42;;
58669;SDS011;44439;47.924;10.198;2023-04-15T01:23:23;4.40;;;1.35;;
58669;SDS011;44439;47.924;10.198;2023-04-15T01:26:08;3.10;;;1.50;;
58669;SDS011;44439;47.924;10.198;2023-04-15T01:28:54;1.80;;;1.10;;
58669;SDS011;44439;47.924;10.198;2023-04-15T01:31:43;3.20;;;1.35;;
58669;SDS011;44439;47.924;10.198;2023-04-15T01:34:34;2.13;;;0.93;;
58669;SDS011;44439;47.924;10.198;2023-04-15T01:37:19;2.45;;;1.25;;
58669;SDS011;44439;47.924;10.198;2023-04-15T01:40:06;4.20;;;1.25;;
58669;SDS011;44439;47.924;10.198;2023-04-15T01:42:52;2.42;;;1.40;;
58669;SDS011;44439;47.924;10.198;2023-04-15T01:45:37;3.33;;;1.30;;
58669;SDS011;44439;47.924;10.198;2023-04-15T01:48:23;2.05;;;1.20;;
58669;SDS011;44439;47.924;10.198;2023-04-15T01:51:09;2.88;;;1.60;;
58669;SDS011;44439;47.924;10.198;2023-04-15T01:53:54;3.90;;;1.10;;
58669;SDS011;44439;47.924;10.198;2023-04-15T01:56:43;3.88;;;1.17;;
58669;SDS011;44439;47.924;10.198;2023-04-15T01:59:29;2.72;;;1.00;;
58669;SDS011;44439;47.924;10.198;2023-04-15T02:02:15;4.20;;;1.48;;
58669;SDS011;44439;47.924;10.198;2023-04-15T02:05:01;3.20;;;1.40;;
58669;SDS011;44439;47.924;10.198;2023-04-15T02:07:49;2.13;;;1.05;;
58669;SDS011;44439;47.924;10.198;2023-04-15T02:10:34;5.38;;;1.50;;
58669;SDS011;44439;47.924;10.198;2023-04-15T02:13:20;3.78;;;1.50;;
58669;SDS011;44439;47.924;10.198;2023-04-15T02:16:14;2.38;;;1.20;;
58669;SDS011;44439;47.924;10.198;2023-04-15T02:19:01;2.65;;;0.85;;
58669;SDS011;44439;47.924;10.198;2023-04-15T02:21:46;1.70;;;1.15;;
58669;SDS011;44439;47.924;10.198;2023-04-15T02:24:33;3.28;;;1.17;;
58669;SDS011;44439;47.924;10.198;2023-04-15T02:27:18;3.45;;;1.20;;
58669;SDS011;44439;47.924;10.198;2023-04-15T02:30:05;4.30;;;1.10;;
58669;SDS011;44439;47.924;10.198;2023-04-15T02:32:51;3.13;;;1.25;;
58669;SDS011;44439;47.924;10.198;2023-04-15T02:35:37;3.35;;;1.27;;
58669;SDS011;44439;47.924;10.198;2023-04-15T02:38:26;1.80;;;1.20;;
58669;SDS011;44439;47.924;10.198;2023-04-15T02:41:11;4.55;;;1.63;;
58669;SDS011;44439;47.924;10.198;2023-04-15T02:43:57;3.40;;;1.35;;
58669;SDS011;44439;47.924;10.198;2023-04-15T02:46:43;4.80;;;1.50;;
58669;SDS011;44439;47.924;10.198;2023-04-15T02:49:31;2.28;;;1.17;;
58669;SDS011;44439;47.924;10.198;2023-04-15T02:52:17;5.32;;;1.25;;
58669;SDS011;44439;47.924;10.198;2023-04-15T02:55:02;4.50;;;1.48;;
58669;SDS011;44439;47.924;10.198;2023-04-15T02:57:49;3.08;;;1.40;;
58669;SDS011;44439;47.924;10.198;2023-04-15T03:00:35;2.75;;;1.27;;
58669;SDS011;44439;47.924;10.198;2023-04-15T03:03:20;3.65;;;1.70;;
58669;SDS011;44439;47.924;10.198;2023-04-15T03:06:06;2.22;;;1.10;;
58669;SDS011;44439;47.924;10.198;2023-04-15T03:08:53;1.48;;;1.25;;
58669;SDS011;44439;47.924;10.198;2023-04-15T03:11:38;3.35;;;1.63;;
58669;SDS011;44439;47.924;10.198;2023-04-15T03:14:26;3.17;;;1.58;;
58669;SDS011;44439;47.924;10.198;2023-04-15T03:17:11;3.03;;;1.42;;
58669;SDS011;44439;47.924;10.198;2023-04-15T03:19:57;3.60;;;1.58;;
58669;SDS011;44439;47.924;10.198;2023-04-15T03:22:43;4.05;;;1.50;;
58669;SDS011;44439;47.924;10.198;2023-04-15T03:25:28;2.30;;;1.30;;
58669;SDS011;44439;47.924;10.198;2023-04-15T03:28:14;2.88;;;1.20;;
58669;SDS011;44439;47.924;10.198;2023-04-15T03:31:00;4.00;;;1.33;;
58669;SDS011;44439;47.924;10.198;2023-04-15T03:33:45;3.42;;;1.30;;
58669;SDS011;44439;47.924;10.198;2023-04-15T03:36:31;3.35;;;1.10;;
58669;SDS011;44439;47.924;10.198;2023-04-15T03:39:19;1.80;;;1.00;;
58669;SDS011;44439;47.924;10.198;2023-04-15T03:42:05;2.50;;;1.25;;
58669;SDS011;44439;47.924;10.198;2023-04-15T03:44:51;2.85;;;1.17;;
58669;SDS011;44439;47.924;10.198;2023-04-15T03:47:37;3.50;;;1.50;;
58669;SDS011;44439;47.924;10.198;2023-04-15T03:50:22;2.70;;;1.50;;
58669;SDS011;44439;47.924;10.198;2023-04-15T03:53:08;2.10;;;1.30;;
58669;SDS011;44439;47.924;10.198;2023-04-15T03:55:54;2.70;;;1.25;;
58669;SDS011;44439;47.924;10.198;2023-04-15T03:58:40;4.75;;;1.60;;
58669;SDS011;44439;47.924;10.198;2023-04-15T04:01:25;3.75;;;1.25;;
58669;SDS011;44439;47.924;10.198;2023-04-15T04:04:11;3.78;;;1.17;;
58669;SDS011;44439;47.924;10.198;2023-04-15T04:06:57;3.70;;;1.60;;
58669;SDS011;44439;47.924;10.198;2023-04-15T04:09:42;3.60;;;1.45;;
58669;SDS011;44439;47.924;10.198;2023-04-15T04:12:28;2.75;;;1.52;;
58669;SDS011;44439;47.924;10.198;2023-04-15T04:15:14;3.22;;;1.40;;
58669;SDS011;44439;47.924;10.198;2023-04-15T04:18:00;3.38;;;1.35;;
58669;SDS011;44439;47.924;10.198;2023-04-15T04:20:46;2.75;;;1.42;;
58669;SDS011;44439;47.924;10.198;2023-04-15T04:23:31;3.10;;;1.35;;
58669;SDS011;44439;47.924;10.198;2023-04-15T04:26:17;2.35;;;1.30;;
58669;SDS011;44439;47.924;10.198;2023-04-15T04:29:04;2.47;;;1.38;;
58669;SDS011;44439;47.924;10.198;2023-04-15T04:31:49;4.28;;;1.58;;
58669;SDS011;44439;47.924;10.198;2023-04-15T04:34:35;3.78;;;1.08;;
58669;SDS011;44439;47.924;10.198;2023-04-15T04:37:21;5.22;;;1.95;;
58669;SDS011;44439;47.924;10.198;2023-04-15T04:40:08;3.20;;;1.50;;
58669;SDS011;44439;47.924;10.198;2023-04-15T04:42:53;2.92;;;1.50;;
58669;SDS011;44439;47.924;10.198;2023-04-15T04:45:39;3.85;;;2.00;;
58669;SDS011;44439;47.924;10.198;2023-04-15T04:48:25;3.65;;;1.50;;
58669;SDS011;44439;47.924;10.198;2023-04-15T04:51:11;4.45;;;1.88;;
58669;SDS011;44439;47.924;10.198;2023-04-15T04:53:57;4.82;;;1.30;;
58669;SDS011;44439;47.924;10.198;2023-04-15T04:56:43;2.42;;;1.30;;
58669;SDS011;44439;47.924;10.198;2023-04-15T04:59:28;2.35;;;1.20;;
58669;SDS011;44439;47.924;10.198;2023-04-15T05:02:14;2.45;;;1.20;;
58669;SDS011;44439;47.924;10.198;2023-04-15T05:05:00;2.90;;;1.10;;
58669;SDS011;44439;47.924;10.198;2023-04-15T05:07:46;2.33;;;1.25;;
58669;SDS011;44439;47.924;10.198;2023-04-15T05:10:33;2.45;;;1.10;;
58669;SDS011;44439;47.924;10.198;2023-04-15T05:13:19;3.55;;;1.80;;
58669;SDS011;44439;47.924;10.198;2023-04-15T05:16:05;3.97;;;1.98;;
58669;SDS011;44439;47.924;10.198;2023-04-15T05:18:51;3.28;;;2.05;;
58669;SDS011;44439;47.924;10.198;2023-04-15T05:21:37;3.88;;;2.00;;
58669;SDS011;44439;47.924;10.198;2023-04-15T05:24:23;4.03;;;2.20;;
58669;SDS011;44439;47.924;10.198;2023-04-15T05:27:08;5.47;;;2.50;;
58669;SDS011;44439;47.924;10.198;2023-04-15T05:29:55;3.25;;;2.13;;
58669;SDS011;44439;47.924;10.198;2023-04-15T05:32:41;6.35;;;2.67;;
58669;SDS011;44439;47.924;10.198;2023-04-15T05:35:27;4.80;;;2.78;;
58669;SDS011;44439;47.924;10.198;2023-04-15T05:38:12;6.28;;;2.17;;
58669;SDS011;44439;47.924;10.198;2023-04-15T05:40:58;3.10;;;1.85;;
58669;SDS011;44439;47.924;10.198;2023-04-15T05:43:44;4.18;;;2.00;;
58669;SDS011;44439;47.924;10.198;2023-04-15T05:46:30;4.65;;;2.60;;
58669;SDS011;44439;47.924;10.198;2023-04-15T05:49:15;3.90;;;1.98;;
58669;SDS011;44439;47.924;10.198;2023-04-15T05:52:01;2.70;;;0.93;;
58669;SDS011;44439;47.924;10.198;2023-04-15T05:54:47;3.30;;;1.90;;
58669;SDS011;44439;47.924;10.198;2023-04-15T05:57:33;2.72;;;1.17;;
58669;SDS011;44439;47.924;10.198;2023-04-15T06:00:19;1.88;;;0.90;;
58669;SDS011;44439;47.924;10.198;2023-04-15T06:03:05;0.90;;;0.60;;
58669;SDS011;44439;47.924;10.198;2023-04-15T06:05:52;1.42;;;0.90;;
58669;SDS011;44439;47.924;10.198;2023-04-15T06:08:37;5.60;;;1.20;;
58669;SDS011;44439;47.924;10.198;2023-04-15T06:11:23;1.05;;;0.60;;
58669;SDS011;44439;47.924;10.198;2023-04-15T06:14:08;1.55;;;0.80;;
58669;SDS011;44439;47.924;10.198;2023-04-15T06:16:54;1.85;;;0.80;;
58669;SDS011;44439;47.924;10.198;2023-04-15T06:19:40;2.38;;;0.70;;
58669;SDS011;44439;47.924;10.198;2023-04-15T06:22:26;1.30;;;0.63;;
58669;SDS011;44439;47.924;10.198;2023-04-15T06:25:12;1.55;;;0.70;;
58669;SDS011;44439;47.924;10.198;2023-04-15T06:27:58;2.00;;;0.60;;
58669;SDS011;44439;47.924;10.198;2023-04-15T06:30:44;2.17;;;0.73;;
58669;SDS011;44439;47.924;10.198;2023-04-15T06:33:30;2.88;;;1.00;;
58669;SDS011;44439;47.924;10.198;2023-04-15T06:36:16;2.67;;;0.98;;
58669;SDS011;44439;47.924;10.198;2023-04-15T06:39:02;1.95;;;0.80;;
58669;SDS011;44439;47.924;10.198;2023-04-15T06:41:48;2.28;;;0.75;;
58669;SDS011;44439;47.924;10.198;2023-04-15T06:44:34;2.92;;;0.90;;
58669;SDS011;44439;47.924;10.198;2023-04-15T06:47:20;1.73;;;0.77;;
58669;SDS011;44439;47.924;10.198;2023-04-15T06:50:06;2.22;;;1.00;;
58669;SDS011;44439;47.924;10.198;2023-04-15T06:52:54;2.67;;;0.93;;
58669;SDS011;44439;47.924;10.198;2023-04-15T06:55:40;2.97;;;1.10;;
58669;SDS011;44439;47.924;10.198;2023-04-15T06:58:25;2.63;;;1.23;;
58669;SDS011;44439;47.924;10.198;2023-04-15T07:01:11;1.95;;;1.00;;
58669;SDS011;44439;47.924;10.198;2023-04-15T07:03:58;1.90;;;0.75;;
58669;SDS011;44439;47.924;10.198;2023-04-15T07:06:44;1.90;;;0.60;;
58669;SDS011;44439;47.924;10.198;2023-04-15T07:09:31;2.00;;;0.70;;
58669;SDS011;44439;47.924;10.198;2023-04-15T07:12:16;2.28;;;0.63;;
58669;SDS011;44439;47.924;10.198;2023-04-15T07:15:02;2.05;;;0.65;;
58669;SDS011;44439;47.924;10.198;2023-04-15T07:17:48;1.13;;;0.60;;
58669;SDS011;44439;47.924;10.198;2023-04-15T07:20:34;2.25;;;0.60;;
58669;SDS011;44439;47.924;10.198;2023-04-15T07:23:20;1.95;;;0.80;;
58669;SDS011;44439;47.924;10.198;2023-04-15T07:26:05;1.40;;;0.90;;
58669;SDS011;44439;47.924;10.198;2023-04-15T07:28:51;1.80;;;0.90;;
58669;SDS011;44439;47.924;10.198;2023-04-15T07:31:37;1.20;;;0.73;;
58669;SDS011;44439;47.924;10.198;2023-04-15T07:34:23;1.25;;;0.70;;
58669;SDS011;44439;47.924;10.198;2023-04-15T07:37:10;1.23;;;0.68;;
58669;SDS011;44439;47.924;10.198;2023-04-15T07:39:55;4.05;;;0.70;;
58669;SDS011;44439;47.924;10.198;2023-04-15T07:42:41;0.93;;;0.55;;
58669;SDS011;44439;47.924;10.198;2023-04-15T07:45:28;1.90;;;0.60;;
58669;SDS011;44439;47.924;10.198;2023-04-15T07:48:14;3.53;;;0.90;;
58669;SDS011;44439;47.924;10.198;2023-04-15T07:51:00;3.20;;;0.77;;
58669;SDS011;44439;47.924;10.198;2023-04-15T07:53:47;2.53;;;0.70;;
58669;SDS011;44439;47.924;10.198;2023-04-15T07:56:34;2.13;;;0.70;;
58669;SDS011;44439;47.924;10.198;2023-04-15T07:59:20;2.72;;;0.70;;
58669;SDS011;44439;47.924;10.198;2023-04-15T08:02:06;1.40;;;0.70;;
58669;SDS011;44439;47.924;10.198;2023-04-15T08:04:52;1.48;;;0.90;;
58669;SDS011;44439;47.924;10.198;2023-04-15T08:07:38;2.10;;;0.93;;
58669;SDS011;44439;47.924;10.198;2023-04-15T08:10:24;2.08;;;0.90;;
58669;SDS011;44439;47.924;10.198;2023-04-15T08:13:10;1.75;;;1.02;;
58669;SDS011;44439;47.924;10.198;2023-04-15T08:16:16;1.85;;;0.80;;
58669;SDS011;44439;47.924;10.198;2023-04-15T08:19:03;3.10;;;1.25;;
58669;SDS011;44439;47.924;10.198;2023-04-15T08:21:50;2.13;;;0.90;;
58669;SDS011;44439;47.924;10.198;2023-04-15T08:24:36;2.92;;;1.50;;
58669;SDS011;44439;47.924;10.198;2023-04-15T08:27:22;3.38;;;0.80;;
58669;SDS011;44439;47.924;10.198;2023-04-15T08:30:07;4.28;;;1.52;;
58669;SDS011;44439;47.924;10.198;2023-04-15T08:32:53;1.98;;;1.02;;
58669;SDS011;44439;47.924;10.198;2023-04-15T08:35:39;1.67;;;0.63;;
58669;SDS011;44439;47.924;10.198;2023-04-15T08:38:25;1.83;;;0.77;;
58669;SDS011;44439;47.924;10.198;2023-04-15T08:41:11;2.45;;;0.60;;
58669;SDS011;44439;47.924;10.198;2023-04-15T08:44:10;3.77;;;1.07;;
58669;SDS011;44439;47.924;10.198;2023-04-15T08:47:02;2.75;;;1.10;;
58669;SDS011;44439;47.924;10.198;2023-04-15T08:49:48;2.38;;;1.23;;
58669;SDS011;44439;47.924;10.198;2023-04-15T08:52:38;2.38;;;0.70;;
58669;SDS011;44439;47.924;10.198;2023-04-15T08:55:29;2.28;;;0.90;;
58669;SDS011;44439;47.924;10.198;2023-04-15T08:58:18;4.80;;;0.95;;
58669;SDS011;44439;47.924;10.198;2023-04-15T09:01:04;2.40;;;0.68;;
58669;SDS011;44439;47.924;10.198;2023-04-15T09:03:50;3.00;;;0.95;;
58669;SDS011;44439;47.924;10.198;2023-04-15T09:06:38;2.15;;;0.77;;
58669;SDS011;44439;47.924;10.198;2023-04-15T09:09:25;5.50;;;3.63;;
58669;SDS011;44439;47.924;10.198;2023-04-15T09:12:11;2.90;;;2.05;;
58669;SDS011;44439;47.924;10.198;2023-04-15T09:14:57;2.50;;;1.25;;
58669;SDS011;44439;47.924;10.198;2023-04-15T09:17:43;1.98;;;0.98;;
58669;SDS011;44439;47.924;10.198;2023-04-15T09:20:30;4.18;;;2.03;;
58669;SDS011;44439;47.924;10.198;2023-04-15T09:23:24;3.25;;;1.65;;
58669;SDS011;44439;47.924;10.198;2023-04-15T09:26:09;3.00;;;1.92;;
58669;SDS011;44439;47.924;10.198;2023-04-15T09:29:01;6.22;;;2.10;;
58669;SDS011;44439;47.924;10.198;2023-04-15T09:31:51;5.75;;;1.90;;
58669;SDS011;44439;47.924;10.198;2023-04-15T09:34:37;3.63;;;1.50;;
58669;SDS011;44439;47.924;10.198;2023-04-15T09:37:34;3.00;;;1.25;;
58669;SDS011;44439;47.924;10.198;2023-04-15T09:40:39;2.35;;;1.05;;
58669;SDS011;44439;47.924;10.198;2023-04-15T09:43:38;2.47;;;1.02;;
58669;SDS011;44439;47.924;10.198;2023-04-15T09:46:43;3.22;;;1.30;;
58669;SDS011;44439;47.924;10.198;2023-04-15T09:49:29;3.85;;;1.00;;
58669;SDS011;44439;47.924;10.198;2023-04-15T09:52:15;3.67;;;2.00;;
58669;SDS011;44439;47.924;10.198;2023-04-15T09:55:01;4.28;;;1.70;;
58669;SDS011;44439;47.924;10.198;2023-04-15T09:57:47;3.90;;;1.10;;
58669;SDS011;44439;47.924;10.198;2023-04-15T10:00:32;4.03;;;1.45;;
58669;SDS011;44439;47.924;10.198;2023-04-15T10:03:21;4.00;;;1.15;;
58669;SDS011;44439;47.924;10.198;2023-04-15T10:06:08;3.15;;;1.05;;
58669;SDS011;44439;47.924;10.198;2023-04-15T10:08:54;2.80;;;0.98;;
58669;SDS011;44439;47.924;10.198;2023-04-15T10:11:40;1.77;;;1.00;;
58669;SDS011;44439;47.924;10.198;2023-04-15T10:14:27;3.88;;;1.10;;
58669;SDS011;44439;47.924;10.198;2023-04-15T10:17:16;3.10;;;0.90;;
58669;SDS011;44439;47.924;10.198;2023-04-15T10:20:03;5.53;;;1.00;;
58669;SDS011;44439;47.924;10.198;2023-04-15T10:22:49;4.45;;;2.20;;
58669;SDS011;44439;47.924;10.198;2023-04-15T10:25:35;3.35;;;1.23;;
58669;SDS011;44439;47.924;10.198;2023-04-15T10:28:22;1.92;;;0.80;;
58669;SDS011;44439;47.924;10.198;2023-04-15T10:31:07;3.25;;;1.10;;
58669;SDS011;44439;47.924;10.198;2023-04-15T10:33:55;3.85;;;1.17;;
58669;SDS011;44439;47.924;10.198;2023-04-15T10:36:42;2.55;;;1.10;;
58669;SDS011;44439;47.924;10.198;2023-04-15T10:42:32;1.65;;;1.05;;
58669;SDS011;44439;47.924;10.198;2023-04-15T10:45:19;2.75;;;0.80;;
58669;SDS011;44439;47.924;10.198;2023-04-15T10:48:08;2.58;;;0.80;;
58669;SDS011;44439;47.924;10.198;2023-04-15T10:50:56;3.67;;;1.20;;
58669;SDS011;44439;47.924;10.198;2023-04-15T10:53:42;4.20;;;1.50;;
58669;SDS011;44439;47.924;10.198;2023-04-15T10:56:28;2.65;;;1.23;;
58669;SDS011;44439;47.924;10.198;2023-04-15T10:59:15;3.92;;;0.90;;
58669;SDS011;44439;47.924;10.198;2023-04-15T11:02:02;3.38;;;1.17;;
58669;SDS011;44439;47.924;10.198;2023-04-15T11:04:55;4.38;;;1.20;;
58669;SDS011;44439;47.924;10.198;2023-04-15T11:13:17;3.55;;;1.13;;
58669;SDS011;44439;47.924;10.198;2023-04-15T11:16:06;3.43;;;1.20;;
58669;SDS011;44439;47.924;10.198;2023-04-15T11:18:52;4.40;;;1.40;;
58669;SDS011;44439;47.924;10.198;2023-04-15T11:21:39;7.00;;;1.90;;
58669;SDS011;44439;47.924;10.198;2023-04-15T11:24:25;5.18;;;1.40;;
58669;SDS011;44439;47.924;10.198;2023-04-15T11:27:19;4.30;;;1.15;;
58669;SDS011;44439;47.924;10.198;2023-04-15T11:30:18;5.40;;;1.40;;
58669;SDS011;44439;47.924;10.198;2023-04-15T11:33:08;1.55;;;1.05;;
58669;SDS011;44439;47.924;10.198;2023-04-15T11:35:56;3.92;;;1.23;;
58669;SDS011;44439;47.924;10.198;2023-04-15T11:38:42;4.13;;;1.27;;
58669;SDS011;44439;47.924;10.198;2023-04-15T11:41:29;5.20;;;1.25;;
58669;SDS011;44439;47.924;10.198;2023-04-15T11:44:15;3.38;;;0.90;;
58669;SDS011;44439;47.924;10.198;2023-04-15T11:47:20;3.08;;;1.05;;
58669;SDS011;44439;47.924;10.198;2023-04-15T11:53:05;2.33;;;0.85;;
58669;SDS011;44439;47.924;10.198;2023-04-15T11:55:52;2.83;;;1.20;;
58669;SDS011;44439;47.924;10.198;2023-04-15T11:58:38;4.50;;;0.85;;
58669;SDS011;44439;47.924;10.198;2023-04-15T12:01:33;3.00;;;1.20;;
58669;SDS011;44439;47.924;10.198;2023-04-15T12:04:20;4.45;;;1.20;;
58669;SDS011;44439;47.924;10.198;2023-04-15T12:07:08;2.42;;;0.90;;
58669;SDS011;44439;47.924;10.198;2023-04-15T12:09:54;2.75;;;1.20;;
58669;SDS011;44439;47.924;10.198;2023-04-15T12:12:41;3.83;;;1.20;;
58669;SDS011;44439;47.924;10.198;2023-04-15T12:15:26;3.10;;;1.27;;
58669;SDS011;44439;47.924;10.198;2023-04-15T12:18:16;7.07;;;1.15;;
58669;SDS011;44439;47.924;10.198;2023-04-15T12:21:12;3.20;;;0.90;;
58669;SDS011;44439;47.924;10.198;2023-04-15T12:24:00;2.80;;;0.90;;
58669;SDS011;44439;47.924;10.198;2023-04-15T12:26:51;2.88;;;1.05;;
58669;SDS011;44439;47.924;10.198;2023-04-15T12:29:38;4.32;;;0.95;;
58669;SDS011;44439;47.924;10.198;2023-04-15T12:32:26;3.42;;;0.95;;
58669;SDS011;44439;47.924;10.198;2023-04-15T12:35:11;2.30;;;0.80;;
58669;SDS011;44439;47.924;10.198;2023-04-15T12:37:57;3.00;;;1.65;;
58669;SDS011;44439;47.924;10.198;2023-04-15T12:40:43;3.53;;;1.20;;
58669;SDS011;44439;47.924;10.198;2023-04-15T12:43:31;5.45;;;2.55;;
58669;SDS011;44439;47.924;10.198;2023-04-15T12:46:17;4.55;;;2.72;;
58669;SDS011;44439;47.924;10.198;2023-04-15T12:49:03;6.70;;;4.35;;
58669;SDS011;44439;47.924;10.198;2023-04-15T12:51:49;5.85;;;2.45;;
58669;SDS011;44439;47.924;10.198;2023-04-15T12:54:36;4.20;;;2.03;;
58669;SDS011;44439;47.924;10.198;2023-04-15T12:57:23;9.00;;;4.45;;
58669;SDS011;44439;47.924;10.198;2023-04-15T13:00:09;9.27;;;5.55;;
58669;SDS011;44439;47.924;10.198;2023-04-15T13:02:56;9.55;;;4.50;;
58669;SDS011;44439;47.924;10.198;2023-04-15T13:05:42;6.18;;;3.33;;
58669;SDS011;44439;47.924;10.198;2023-04-15T13:08:27;7.85;;;4.00;;
58669;SDS011;44439;47.924;10.198;2023-04-15T13:11:13;5.80;;;3.30;;
58669;SDS011;44439;47.924;10.198;2023-04-15T13:13:59;7.60;;;5.18;;
58669;SDS011;44439;47.924;10.198;2023-04-15T13:16:45;7.25;;;3.25;;
58669;SDS011;44439;47.924;10.198;2023-04-15T13:19:31;5.97;;;2.72;;
58669;SDS011;44439;47.924;10.198;2023-04-15T13:22:17;3.47;;;1.65;;
58669;SDS011;44439;47.924;10.198;2023-04-15T13:25:03;5.53;;;1.63;;
58669;SDS011;44439;47.924;10.198;2023-04-15T13:27:49;3.40;;;1.70;;
58669;SDS011;44439;47.924;10.198;2023-04-15T13:30:36;3.00;;;1.55;;
58669;SDS011;44439;47.924;10.198;2023-04-15T13:33:22;5.03;;;2.78;;
58669;SDS011;44439;47.924;10.198;2023-04-15T13:36:08;3.85;;;2.22;;
58669;SDS011;44439;47.924;10.198;2023-04-15T13:38:53;5.38;;;1.90;;
58669;SDS011;44439;47.924;10.198;2023-04-15T13:41:39;4.03;;;1.70;;
58669;SDS011;44439;47.924;10.198;2023-04-15T13:44:25;2.72;;;1.58;;
58669;SDS011;44439;47.924;10.198;2023-04-15T13:47:11;4.22;;;2.33;;
58669;SDS011;44439;47.924;10.198;2023-04-15T13:49:59;6.28;;;3.83;;
58669;SDS011;44439;47.924;10.198;2023-04-15T13:52:44;4.18;;;1.50;;
58669;SDS011;44439;47.924;10.198;2023-04-15T13:55:30;5.30;;;1.50;;
58669;SDS011;44439;47.924;10.198;2023-04-15T13:58:16;3.33;;;1.52;;
58669;SDS011;44439;47.924;10.198;2023-04-15T14:01:01;2.72;;;1.20;;
58669;SDS011;44439;47.924;10.198;2023-04-15T14:03:47;6.05;;;2.60;;
58669;SDS011;44439;47.924;10.198;2023-04-15T14:06:33;7.20;;;3.90;;
58669;SDS011;44439;47.924;10.198;2023-04-15T14:09:18;8.07;;;4.20;;
58669;SDS011;44439;47.924;10.198;2023-04-15T14:12:06;13.60;;;7.72;;
58669;SDS011;44439;47.924;10.198;2023-04-15T14:14:52;9.52;;;6.13;;
58669;SDS011;44439;47.924;10.198;2023-04-15T14:17:37;7.75;;;4.15;;
58669;SDS011;44439;47.924;10.198;2023-04-15T14:20:23;4.95;;;3.58;;
58669;SDS011;44439;47.924;10.198;2023-04-15T14:23:09;5.88;;;3.00;;
58669;SDS011;44439;47.924;10.198;2023-04-15T14:25:54;6.70;;;2.72;;
58669;SDS011;44439;47.924;10.198;2023-04-15T14:28:40;4.75;;;2.67;;
58669;SDS011;44439;47.924;10.198;2023-04-15T14:31:29;5.80;;;2.80;;
58669;SDS011;44439;47.924;10.198;2023-04-15T14:34:15;4.00;;;3.03;;
58669;SDS011;44439;47.924;10.198;2023-04-15T14:37:01;4.10;;;1.88;;
58669;SDS011;44439;47.924;10.198;2023-04-15T14:39:47;6.13;;;3.25;;
58669;SDS011;44439;47.924;10.198;2023-04-15T14:42:33;5.55;;;3.42;;
58669;SDS011;44439;47.924;10.198;2023-04-15T14:45:18;5.15;;;3.03;;
58669;SDS011;44439;47.924;10.198;2023-04-15T14:48:04;6.20;;;2.80;;
58669;SDS011;44439;47.924;10.198;2023-04-15T14:50:54;6.78;;;3.47;;
58669;SDS011;44439;47.924;10.198;2023-04-15T14:53:39;4.47;;;2.60;;
58669;SDS011;44439;47.924;10.198;2023-04-15T14:56:25;5.55;;;2.53;;
58669;SDS011;44439;47.924;10.198;2023-04-15T14:59:11;5.75;;;2.45;;
58669;SDS011;44439;47.924;10.198;2023-04-15T15:01:57;3.28;;;2.28;;
58669;SDS011;44439;47.924;10.198;2023-04-15T15:04:43;5.80;;;3.22;;
58669;SDS011;44439;47.924;10.198;2023-04-15T15:07:28;5.07;;;3.92;;
58669;SDS011;44439;47.924;10.198;2023-04-15T15:10:14;5.22;;;3.85;;
58669;SDS011;44439;47.924;10.198;2023-04-15T15:13:01;5.07;;;3.13;;
58669;SDS011;44439;47.924;10.198;2023-04-15T15:15:48;6.93;;;2.92;;
58669;SDS011;44439;47.924;10.198;2023-04-15T15:18:34;4.07;;;3.13;;
58669;SDS011;44439;47.924;10.198;2023-04-15T15:21:20;5.40;;;3.30;;
58669;SDS011;44439;47.924;10.198;2023-04-15T15:24:06;3.33;;;2.58;;
58669;SDS011;44439;47.924;10.198;2023-04-15T15:26:51;3.30;;;2.58;;
58669;SDS011;44439;47.924;10.198;2023-04-15T15:29:37;5.20;;;2.85;;
58669;SDS011;44439;47.924;10.198;2023-04-15T15:32:23;4.28;;;2.92;;
58669;SDS011;44439;47.924;10.198;2023-04-15T15:35:11;6.20;;;3.08;;
58669;SDS011;44439;47.924;10.198;2023-04-15T15:37:58;5.35;;;3.83;;
58669;SDS011;44439;47.924;10.198;2023-04-15T15:40:44;6.88;;;3.97;;
58669;SDS011;44439;47.924;10.198;2023-04-15T15:43:30;5.93;;;3.70;;
58669;SDS011;44439;47.924;10.198;2023-04-15T15:46:16;5.90;;;4.45;;
58669;SDS011;44439;47.924;10.198;2023-04-15T15:49:02;5.47;;;3.75;;
58669;SDS011;44439;47.924;10.198;2023-04-15T15:51:48;7.60;;;4.30;;
58669;SDS011;44439;47.924;10.198;2023-04-15T15:54:34;19.33;;;14.73;;
58669;SDS011;44439;47.924;10.198;2023-04-15T15:57:21;12.75;;;9.75;;
58669;SDS011;44439;47.924;10.198;2023-04-15T16:00:07;15.27;;;10.25;;
58669;SDS011;44439;47.924;10.198;2023-04-15T16:02:54;14.80;;;11.68;;
58669;SDS011;44439;47.924;10.198;2023-04-15T16:05:45;9.18;;;6.82;;
58669;SDS011;44439;47.924;10.198;2023-04-15T16:08:36;6.10;;;4.35;;
58669;SDS011;44439;47.924;10.198;2023-04-15T16:11:22;7.32;;;4.60;;
58669;SDS011;44439;47.924;10.198;2023-04-15T16:14:08;5.40;;;4.03;;
58669;SDS011;44439;47.924;10.198;2023-04-15T16:16:54;7.25;;;4.00;;
58669;SDS011;44439;47.924;10.198;2023-04-15T16:19:40;9.18;;;6.13;;
58669;SDS011;44439;47.924;10.198;2023-04-15T16:22:26;7.65;;;5.22;;
58669;SDS011;44439;47.924;10.198;2023-04-15T16:25:11;8.30;;;5.60;;
58669;SDS011;44439;47.924;10.198;2023-04-15T16:27:57;6.65;;;4.65;;
58669;SDS011;44439;47.924;10.198;2023-04-15T16:30:42;7.35;;;5.70;;
58669;SDS011;44439;47.924;10.198;2023-04-15T16:33:28;8.85;;;5.32;;
58669;SDS011;44439;47.924;10.198;2023-04-15T16:36:14;8.45;;;5.57;;
58669;SDS011;44439;47.924;10.198;2023-04-15T16:39:02;8.45;;;4.68;;